Time;durP1;ratioP1;P1;durP2;ratioP2;P2;SDS_P1;SDS_P2;PMS_P1;PMS_P2;Temp;Humidity;BMP_temperature;BMP_pressure;BME280_temperature;BME280_humidity;BME280_pressure;Samples;Min_cycle;Max_cycle;Signal;HPM_P1;HPM_P2
2022/06/08 00:05:19;;;;;;;2.80;1.20;;;15.70;99.90;;;;;;20809195;28;20033;-85
2022/06/08 00:15:20;;;;;;;6.15;1.65;;;15.80;99.90;;;;;;20803865;28;20050;-85
2022/06/08 00:25:23;;;;;;;6.53;1.70;;;15.70;99.90;;;;;;20787662;28;20066;-85
2022/06/08 00:35:25;;;;;;;6.00;2.45;;;15.70;99.90;;;;;;20777046;28;20052;-84
2022/06/08 00:45:29;;;;;;;2.70;1.50;;;15.70;99.90;;;;;;20762990;28;20049;-84
2022/06/08 00:55:33;;;;;;;4.00;1.85;;;15.70;99.90;;;;;;20757509;28;22320;-84
2022/06/08 01:05:36;;;;;;;12.07;2.33;;;15.70;99.90;;;;;;20754877;28;20454;-82
2022/06/08 01:15:39;;;;;;;5.50;1.90;;;15.60;99.90;;;;;;20748230;28;20042;-82
2022/06/08 01:25:52;;;;;;;3.88;1.98;;;15.60;99.90;;;;;;20793325;28;20603;-83
2022/06/08 01:36:26;;;;;;;4.45;1.95;;;15.60;99.90;;;;;;20796598;28;20061;-83
2022/06/08 01:46:31;;;;;;;8.65;3.58;;;15.70;99.90;;;;;;20758854;28;21165;-82
2022/06/08 01:56:48;;;;;;;4.78;2.50;;;15.60;99.90;;;;;;20774774;28;20049;-82
2022/06/08 02:07:14;;;;;;;4.85;2.78;;;15.60;99.90;;;;;;20794772;28;20030;-82
2022/06/08 02:17:21;;;;;;;6.82;3.58;;;15.50;99.90;;;;;;20730545;28;20438;-83
2022/06/08 02:27:34;;;;;;;5.97;3.60;;;15.40;99.90;;;;;;20736974;28;20088;-82
2022/06/08 02:37:37;;;;;;;9.55;4.32;;;15.30;99.90;;;;;;20746497;28;20279;-82
2022/06/08 02:47:40;;;;;;;7.32;3.78;;;15.30;99.90;;;;;;20718474;28;20041;-82
2022/06/08 02:58:12;;;;;;;8.63;3.50;;;15.20;99.90;;;;;;20743902;28;20045;-82
2022/06/08 03:08:22;;;;;;;11.30;4.15;;;15.10;99.90;;;;;;20737633;28;20041;-83
2022/06/08 03:18:24;;;;;;;5.28;2.78;;;15.10;99.90;;;;;;20739207;28;24831;-82
2022/06/08 03:28:25;;;;;;;4.80;2.17;;;15.00;99.90;;;;;;20741638;28;20041;-83
2022/06/08 03:38:26;;;;;;;5.32;2.67;;;15.00;99.90;;;;;;20769844;28;20072;-82
2022/06/08 03:48:27;;;;;;;6.70;2.45;;;15.10;99.90;;;;;;20732954;28;20042;-83
2022/06/08 03:58:29;;;;;;;5.88;2.10;;;15.00;99.90;;;;;;20737637;28;20452;-82
2022/06/08 04:08:31;;;;;;;4.97;2.35;;;14.90;99.90;;;;;;20722008;28;20335;-82
2022/06/08 04:18:33;;;;;;;5.82;2.95;;;15.00;99.90;;;;;;20715375;28;20038;-82
2022/06/08 04:28:35;;;;;;;7.18;3.88;;;15.20;99.90;;;;;;20744244;28;20044;-82
2022/06/08 04:38:38;;;;;;;4.70;2.13;;;15.10;99.90;;;;;;20729295;28;20046;-82
2022/06/08 04:48:39;;;;;;;5.13;1.65;;;15.10;99.90;;;;;;20725437;28;20053;-82
2022/06/08 04:58:42;;;;;;;2.90;1.38;;;15.30;99.90;;;;;;20748947;28;20065;-83
2022/06/08 05:08:43;;;;;;;3.28;1.52;;;15.50;99.90;;;;;;20763032;28;20034;-83
2022/06/08 05:18:45;;;;;;;5.03;1.90;;;15.60;99.90;;;;;;20729096;28;20045;-83
2022/06/08 05:28:46;;;;;;;4.75;2.00;;;15.60;99.90;;;;;;20751757;28;20041;-81
2022/06/08 05:38:47;;;;;;;5.72;2.42;;;15.70;99.90;;;;;;20711182;28;20053;-82
2022/06/08 05:48:48;;;;;;;3.33;1.63;;;15.80;99.90;;;;;;20725315;28;20042;-82
2022/06/08 05:58:49;;;;;;;4.60;1.30;;;15.90;99.90;;;;;;20715286;28;20156;-81
2022/06/08 06:08:51;;;;;;;3.22;1.00;;;16.10;99.90;;;;;;20707079;28;20513;-81
2022/06/08 06:18:53;;;;;;;2.70;1.38;;;16.20;99.90;;;;;;20725467;28;20052;-82
2022/06/08 06:28:54;;;;;;;1.73;1.10;;;16.30;99.90;;;;;;20731795;28;20120;-82
2022/06/08 06:38:55;;;;;;;3.30;1.13;;;16.30;99.90;;;;;;20733005;28;20064;-82
2022/06/08 06:48:56;;;;;;;5.15;1.30;;;16.60;99.90;;;;;;20731902;28;20041;-82
2022/06/08 06:58:57;;;;;;;4.18;1.67;;;17.10;99.90;;;;;;20736135;28;20108;-82
2022/06/08 07:09:01;;;;;;;4.63;1.58;;;17.50;99.90;;;;;;20740779;28;20096;-82
2022/06/08 07:19:03;;;;;;;2.55;1.27;;;17.70;99.90;;;;;;20742768;28;20649;-81
2022/06/08 07:29:05;;;;;;;3.10;1.45;;;17.70;99.90;;;;;;20742488;28;20034;-81
2022/06/08 07:39:06;;;;;;;3.92;1.38;;;17.80;99.90;;;;;;20746495;28;20053;-81
2022/06/08 07:59:33;;;;;;;1.58;1.15;;;18.00;99.90;;;;;;20736953;28;21069;-81
2022/06/08 08:09:35;;;;;;;3.25;1.52;;;18.10;99.90;;;;;;20730953;28;20381;-81
2022/06/08 08:19:38;;;;;;;4.15;1.58;;;18.00;99.90;;;;;;20759351;28;20067;-81
2022/06/08 08:29:40;;;;;;;3.25;1.10;;;18.10;99.90;;;;;;20720925;28;20489;-81
2022/06/08 08:39:41;;;;;;;2.20;1.10;;;18.20;99.90;;;;;;20726638;28;20608;-82
2022/06/08 08:50:10;;;;;;;2.25;1.30;;;18.50;99.90;;;;;;20734580;28;20038;-83
2022/06/08 09:00:28;;;;;;;6.65;1.75;;;18.60;99.90;;;;;;20731643;28;20339;-81
2022/06/08 09:10:29;;;;;;;5.50;2.78;;;18.60;99.90;;;;;;20721816;28;20055;-82
2022/06/08 09:20:35;;;;;;;7.35;3.25;;;18.90;99.90;;;;;;20722478;28;20485;-81
2022/06/08 09:30:49;;;;;;;4.45;2.67;;;19.30;99.90;;;;;;20773708;28;20320;-81
2022/06/08 09:41:02;;;;;;;3.95;1.98;;;19.40;99.90;;;;;;20761350;28;20049;-81
2022/06/08 09:51:26;;;;;;;6.78;2.53;;;19.30;99.90;;;;;;20802214;28;20045;-82
2022/06/08 10:01:45;;;;;;;5.35;2.67;;;19.30;99.90;;;;;;20826418;28;20349;-81
2022/06/08 10:11:47;;;;;;;5.13;2.05;;;19.30;99.90;;;;;;20808747;28;20041;-81
2022/06/08 10:21:50;;;;;;;2.13;1.35;;;19.00;99.90;;;;;;20764179;28;20042;-81
2022/06/08 10:32:01;;;;;;;1.20;0.43;;;18.80;99.90;;;;;;20789454;28;20624;-81
2022/06/08 10:52:44;;;;;;;1.33;0.50;;;18.50;99.90;;;;;;20837896;28;20051;-81
2022/06/08 11:03:03;;;;;;;1.13;0.38;;;18.00;99.90;;;;;;20830801;28;20041;-83
2022/06/08 11:13:14;;;;;;;1.27;0.47;;;17.50;99.90;;;;;;20753904;28;20042;-81
2022/06/08 11:23:23;;;;;;;2.67;1.23;;;17.20;99.90;;;;;;20764092;28;20046;-81
2022/06/08 11:33:48;;;;;;;2.00;0.75;;;17.20;99.90;;;;;;20753789;28;20049;-82
2022/06/08 11:43:50;;;;;;;1.58;0.40;;;17.10;99.90;;;;;;20763748;28;20325;-82
2022/06/08 11:53:51;;;;;;;7.50;0.70;;;16.60;99.90;;;;;;20774946;28;20041;-82
2022/06/08 12:04:00;;;;;;;5.63;1.80;;;16.50;99.90;;;;;;20757178;28;20045;-82
2022/06/08 12:14:20;;;;;;;1.60;0.90;;;16.30;99.90;;;;;;20759956;28;20088;-82
2022/06/08 12:24:24;;;;;;;1.50;0.60;;;16.20;99.90;;;;;;20754331;28;21284;-82
2022/06/08 12:34:39;;;;;;;1.15;0.50;;;16.10;99.90;;;;;;20775055;28;20034;-81
2022/06/08 12:44:51;;;;;;;1.52;0.55;;;16.10;99.90;;;;;;20769130;28;20270;-82
2022/06/08 12:54:53;;;;;;;0.98;0.47;;;16.00;99.90;;;;;;20771216;28;20046;-81
2022/06/08 13:04:55;;;;;;;1.73;0.60;;;15.90;99.90;;;;;;20777366;28;20049;-80
2022/06/08 13:14:58;;;;;;;1.75;0.93;;;16.00;99.90;;;;;;20766098;28;20041;-83
2022/06/08 13:24:59;;;;;;;1.90;0.60;;;16.10;99.90;;;;;;20757441;28;20501;-86
2022/06/08 13:35:02;;;;;;;1.90;0.73;;;16.10;99.90;;;;;;20752748;28;20056;-81
2022/06/08 13:45:04;;;;;;;1.77;0.60;;;16.10;99.90;;;;;;20743429;28;20050;-81
2022/06/08 13:55:28;;;;;;;2.83;0.98;;;16.00;99.90;;;;;;20740527;28;20528;-81
2022/06/08 14:15:58;;;;;;;2.83;0.85;;;15.90;99.90;;;;;;20750351;28;20736;-81
2022/06/08 14:25:59;;;;;;;1.90;1.25;;;15.90;99.90;;;;;;20736327;28;20045;-81
2022/06/08 14:36:01;;;;;;;2.25;0.73;;;15.90;99.90;;;;;;20742514;28;20058;-81
2022/06/08 14:46:02;;;;;;;1.13;0.75;;;16.00;99.90;;;;;;20745004;28;20046;-81
2022/06/08 14:56:23;;;;;;;1.60;0.82;;;16.10;99.90;;;;;;20728544;28;20038;-81
2022/06/08 15:06:24;;;;;;;2.03;0.80;;;16.20;99.90;;;;;;20744733;28;22044;-81
2022/06/08 15:16:26;;;;;;;4.55;1.75;;;16.20;99.90;;;;;;20728367;28;20045;-81
2022/06/08 15:26:27;;;;;;;3.60;1.52;;;16.30;99.90;;;;;;20729056;28;20544;-81
2022/06/08 15:36:29;;;;;;;2.85;1.70;;;16.30;99.90;;;;;;20741346;28;20049;-82
2022/06/08 15:46:31;;;;;;;5.00;1.90;;;16.40;99.90;;;;;;20697664;28;20045;-81
2022/06/08 15:56:43;;;;;;;4.10;1.77;;;16.40;99.90;;;;;;20750267;28;20454;-81
2022/06/08 16:06:46;;;;;;;4.50;2.25;;;16.60;99.90;;;;;;20767789;28;20057;-81
2022/06/08 16:16:47;;;;;;;4.45;2.10;;;16.60;99.90;;;;;;20745894;28;20056;-84
2022/06/08 16:26:49;;;;;;;6.03;2.45;;;16.60;99.90;;;;;;20766752;28;20049;-85
2022/06/08 16:36:51;;;;;;;3.28;1.63;;;16.60;99.90;;;;;;20783802;28;20051;-83
2022/06/08 16:46:52;;;;;;;4.72;2.92;;;16.70;99.90;;;;;;20744555;28;20049;-84
2022/06/08 17:07:17;;;;;;;5.28;2.38;;;16.70;99.90;;;;;;20741110;28;20048;-82
2022/06/08 17:17:25;;;;;;;4.43;1.90;;;16.80;99.90;;;;;;20727792;28;20045;-82
2022/06/08 17:27:26;;;;;;;7.07;2.77;;;16.70;99.90;;;;;;20728636;28;20056;-84
2022/06/08 17:37:27;;;;;;;5.25;1.70;;;16.70;99.90;;;;;;20732792;28;20460;-81
2022/06/08 17:47:30;;;;;;;4.68;1.40;;;16.80;99.90;;;;;;20733640;28;20044;-82
2022/06/08 17:57:32;;;;;;;3.50;1.25;;;16.70;99.90;;;;;;20715541;28;20038;-82
2022/06/08 18:07:37;;;;;;;6.65;1.42;;;16.70;99.90;;;;;;20728593;28;20042;-82
2022/06/08 18:17:40;;;;;;;3.22;1.05;;;16.60;99.90;;;;;;20716909;28;20049;-82
2022/06/08 18:27:44;;;;;;;7.97;2.53;;;16.50;99.90;;;;;;20722235;28;20042;-82
2022/06/08 18:37:46;;;;;;;4.38;1.52;;;16.50;99.90;;;;;;20725891;28;20052;-82
2022/06/08 18:47:48;;;;;;;4.15;1.35;;;16.50;99.90;;;;;;20707590;28;20037;-82
2022/06/08 18:57:50;;;;;;;2.78;1.02;;;16.40;99.90;;;;;;20733466;28;20081;-82
2022/06/08 19:07:55;;;;;;;3.13;0.98;;;16.30;99.90;;;;;;20725884;28;20030;-81
2022/06/08 19:28:18;;;;;;;3.10;0.98;;;16.40;99.90;;;;;;20724394;28;21290;-81
2022/06/08 19:38:22;;;;;;;4.57;0.98;;;16.20;99.90;;;;;;20746240;28;20042;-82
2022/06/08 19:48:23;;;;;;;3.17;1.60;;;16.10;99.90;;;;;;20724905;28;20052;-82
2022/06/08 19:58:25;;;;;;;1.80;0.68;;;15.90;99.90;;;;;;20725771;28;21485;-82
2022/06/08 20:08:27;;;;;;;3.28;1.40;;;15.80;99.90;;;;;;20740475;28;20511;-80
2022/06/08 20:18:29;;;;;;;8.70;1.55;;;15.70;99.90;;;;;;20740436;28;20045;-80
2022/06/08 20:28:30;;;;;;;3.92;1.20;;;15.80;99.90;;;;;;20738782;28;20052;-80
2022/06/08 20:38:31;;;;;;;5.00;1.67;;;15.90;99.90;;;;;;20710150;28;20046;-80
2022/06/08 20:48:33;;;;;;;5.47;1.65;;;15.90;99.90;;;;;;20750864;28;20670;-80
2022/06/08 20:58:34;;;;;;;10.82;3.40;;;15.70;99.90;;;;;;20723628;28;20048;-80
2022/06/08 21:08:36;;;;;;;2.00;0.80;;;15.60;99.90;;;;;;20715108;28;20042;-80
2022/06/08 21:18:37;;;;;;;6.78;1.42;;;15.50;99.90;;;;;;20744891;28;20081;-80
2022/06/08 21:28:39;;;;;;;1.65;1.05;;;15.40;99.90;;;;;;20729015;28;20042;-80
2022/06/08 21:38:40;;;;;;;4.05;1.23;;;15.20;99.90;;;;;;20701387;28;20425;-80
2022/06/08 21:48:41;;;;;;;1.70;0.68;;;15.20;99.90;;;;;;20737504;28;20049;-80
2022/06/08 21:58:42;;;;;;;5.68;1.25;;;15.10;99.90;;;;;;20728818;28;20042;-80
2022/06/08 22:08:47;;;;;;;3.00;1.00;;;15.00;99.90;;;;;;20693248;28;20046;-80
2022/06/08 22:18:51;;;;;;;3.70;1.57;;;15.00;99.90;;;;;;20744810;28;20048;-80
2022/06/08 22:28:53;;;;;;;2.63;1.15;;;15.00;99.90;;;;;;20731274;28;20056;-80
2022/06/08 22:38:55;;;;;;;2.42;1.20;;;14.90;99.90;;;;;;20695183;28;20053;-80
2022/06/08 22:48:56;;;;;;;2.33;0.85;;;14.90;99.90;;;;;;20732116;28;20051;-80
2022/06/08 22:58:57;;;;;;;2.20;0.75;;;14.80;99.90;;;;;;20732297;28;20049;-80
2022/06/08 23:08:58;;;;;;;2.05;1.00;;;14.80;99.90;;;;;;20716631;28;20068;-80
2022/06/08 23:29:19;;;;;;;2.35;1.00;;;14.90;99.90;;;;;;20763340;28;20158;-80
2022/06/08 23:39:20;;;;;;;1.80;0.70;;;14.90;99.90;;;;;;20728701;28;20432;-80
2022/06/08 23:49:21;;;;;;;1.42;0.55;;;14.80;99.90;;;;;;20729925;28;20046;-80
2022/06/08 23:59:23;;;;;;;4.75;1.20;;;14.80;99.90;;;;;;20744587;28;20060;-81
